sensor_id;sensor_type;location;lat;lon;timestamp;P1;durP1;ratioP1;P2;durP2;ratioP2
7289;SDS011;63176;52.678;13.250;2022-10-01T00:00:53;7.68;;;5.10;;
7289;SDS011;63176;52.678;13.250;2022-10-01T00:03:21;7.68;;;5.40;;
7289;SDS011;63176;52.678;13.250;2022-10-01T00:06:04;5.80;;;4.82;;
7289;SDS011;63176;52.678;13.250;2022-10-01T00:08:30;6.18;;;4.25;;
7289;SDS011;63176;52.678;13.250;2022-10-01T00:10:57;5.13;;;4.60;;
7289;SDS011;63176;52.678;13.250;2022-10-01T00:13:29;6.22;;;5.45;;
7289;SDS011;63176;52.678;13.250;2022-10-01T00:15:54;8.45;;;5.82;;
7289;SDS011;63176;52.678;13.250;2022-10-01T00:18:20;7.28;;;4.65;;
7289;SDS011;63176;52.678;13.250;2022-10-01T00:20:47;6.30;;;4.90;;
7289;SDS011;63176;52.678;13.250;2022-10-01T00:23:12;7.10;;;4.75;;
7289;SDS011;63176;52.678;13.250;2022-10-01T00:25:39;6.40;;;4.75;;
7289;SDS011;63176;52.678;13.250;2022-10-01T00:28:06;6.28;;;4.72;;
7289;SDS011;63176;52.678;13.250;2022-10-01T00:30:31;11.52;;;6.10;;
7289;SDS011;63176;52.678;13.250;2022-10-01T00:32:57;6.63;;;5.10;;
7289;SDS011;63176;52.678;13.250;2022-10-01T00:35:23;7.20;;;5.70;;
7289;SDS011;63176;52.678;13.250;2022-10-01T00:37:49;6.40;;;4.90;;
7289;SDS011;63176;52.678;13.250;2022-10-01T00:40:16;6.40;;;4.70;;
7289;SDS011;63176;52.678;13.250;2022-10-01T00:42:44;6.90;;;4.78;;
7289;SDS011;63176;52.678;13.250;2022-10-01T00:45:10;5.22;;;4.45;;
7289;SDS011;63176;52.678;13.250;2022-10-01T00:47:38;6.50;;;5.10;;
7289;SDS011;63176;52.678;13.250;2022-10-01T00:50:26;8.35;;;5.43;;
7289;SDS011;63176;52.678;13.250;2022-10-01T00:52:58;9.75;;;5.55;;
7289;SDS011;63176;52.678;13.250;2022-10-01T00:55:31;5.30;;;4.60;;
7289;SDS011;63176;52.678;13.250;2022-10-01T00:58:00;6.47;;;5.00;;
7289;SDS011;63176;52.678;13.250;2022-10-01T01:00:28;7.43;;;5.05;;
7289;SDS011;63176;52.678;13.250;2022-10-01T01:02:54;7.85;;;5.57;;
7289;SDS011;63176;52.678;13.250;2022-10-01T01:05:20;7.00;;;5.80;;
7289;SDS011;63176;52.678;13.250;2022-10-01T01:07:47;7.57;;;5.13;;
7289;SDS011;63176;52.678;13.250;2022-10-01T01:10:18;7.45;;;5.57;;
7289;SDS011;63176;52.678;13.250;2022-10-01T01:15:41;6.80;;;5.00;;
7289;SDS011;63176;52.678;13.250;2022-10-01T01:23:56;11.02;;;5.60;;
7289;SDS011;63176;52.678;13.250;2022-10-01T01:29:32;7.70;;;6.03;;
7289;SDS011;63176;52.678;13.250;2022-10-01T01:32:00;17.02;;;5.40;;
7289;SDS011;63176;52.678;13.250;2022-10-01T01:34:32;8.68;;;5.45;;
7289;SDS011;63176;52.678;13.250;2022-10-01T01:37:02;6.20;;;5.22;;
7289;SDS011;63176;52.678;13.250;2022-10-01T01:39:37;7.80;;;5.50;;
7289;SDS011;63176;52.678;13.250;2022-10-01T01:42:09;6.38;;;5.07;;
7289;SDS011;63176;52.678;13.250;2022-10-01T01:44:44;8.73;;;6.28;;
7289;SDS011;63176;52.678;13.250;2022-10-01T01:47:11;6.95;;;5.20;;
7289;SDS011;63176;52.678;13.250;2022-10-01T01:49:38;7.38;;;5.70;;
7289;SDS011;63176;52.678;13.250;2022-10-01T01:52:09;7.20;;;4.85;;
7289;SDS011;63176;52.678;13.250;2022-10-01T01:54:43;8.82;;;5.80;;
7289;SDS011;63176;52.678;13.250;2022-10-01T01:57:11;7.60;;;5.90;;
7289;SDS011;63176;52.678;13.250;2022-10-01T01:59:38;7.45;;;5.88;;
7289;SDS011;63176;52.678;13.250;2022-10-01T02:02:05;6.88;;;6.00;;
7289;SDS011;63176;52.678;13.250;2022-10-01T02:04:42;7.38;;;5.78;;
7289;SDS011;63176;52.678;13.250;2022-10-01T02:10:19;7.45;;;5.38;;
7289;SDS011;63176;52.678;13.250;2022-10-01T02:15:44;10.63;;;5.60;;
7289;SDS011;63176;52.678;13.250;2022-10-01T02:18:32;7.20;;;5.40;;
7289;SDS011;63176;52.678;13.250;2022-10-01T02:21:26;6.80;;;5.97;;
7289;SDS011;63176;52.678;13.250;2022-10-01T02:27:02;12.02;;;5.95;;
7289;SDS011;63176;52.678;13.250;2022-10-01T02:29:32;11.00;;;6.15;;
7289;SDS011;63176;52.678;13.250;2022-10-01T02:31:59;7.05;;;4.70;;
7289;SDS011;63176;52.678;13.250;2022-10-01T02:34:27;10.32;;;4.90;;
7289;SDS011;63176;52.678;13.250;2022-10-01T02:36:54;8.00;;;6.20;;
7289;SDS011;63176;52.678;13.250;2022-10-01T02:39:21;6.70;;;5.43;;
7289;SDS011;63176;52.678;13.250;2022-10-01T02:41:50;9.10;;;6.03;;
7289;SDS011;63176;52.678;13.250;2022-10-01T02:44:20;7.57;;;5.93;;
7289;SDS011;63176;52.678;13.250;2022-10-01T02:46:59;6.97;;;5.63;;
7289;SDS011;63176;52.678;13.250;2022-10-01T02:49:31;7.47;;;5.85;;
7289;SDS011;63176;52.678;13.250;2022-10-01T02:51:58;7.38;;;6.40;;
7289;SDS011;63176;52.678;13.250;2022-10-01T02:54:48;8.30;;;5.82;;
7289;SDS011;63176;52.678;13.250;2022-10-01T02:57:19;7.25;;;5.22;;
7289;SDS011;63176;52.678;13.250;2022-10-01T02:59:49;7.85;;;5.50;;
7289;SDS011;63176;52.678;13.250;2022-10-01T03:02:15;7.75;;;5.50;;
7289;SDS011;63176;52.678;13.250;2022-10-01T03:04:41;7.10;;;4.88;;
7289;SDS011;63176;52.678;13.250;2022-10-01T03:07:07;8.90;;;5.43;;
7289;SDS011;63176;52.678;13.250;2022-10-01T03:09:33;6.67;;;5.30;;
7289;SDS011;63176;52.678;13.250;2022-10-01T03:12:00;7.30;;;5.95;;
7289;SDS011;63176;52.678;13.250;2022-10-01T03:14:26;9.10;;;6.07;;
7289;SDS011;63176;52.678;13.250;2022-10-01T03:16:52;6.07;;;4.82;;
7289;SDS011;63176;52.678;13.250;2022-10-01T03:19:18;6.47;;;4.57;;
7289;SDS011;63176;52.678;13.250;2022-10-01T03:21:44;8.65;;;5.90;;
7289;SDS011;63176;52.678;13.250;2022-10-01T03:24:10;6.23;;;4.83;;
7289;SDS011;63176;52.678;13.250;2022-10-01T03:26:36;12.60;;;5.90;;
7289;SDS011;63176;52.678;13.250;2022-10-01T03:29:02;7.57;;;5.67;;
7289;SDS011;63176;52.678;13.250;2022-10-01T03:31:28;7.15;;;5.00;;
7289;SDS011;63176;52.678;13.250;2022-10-01T03:33:54;8.60;;;5.50;;
7289;SDS011;63176;52.678;13.250;2022-10-01T03:36:24;6.97;;;5.28;;
7289;SDS011;63176;52.678;13.250;2022-10-01T03:38:52;10.07;;;5.50;;
7289;SDS011;63176;52.678;13.250;2022-10-01T03:41:18;6.67;;;5.60;;
7289;SDS011;63176;52.678;13.250;2022-10-01T03:43:44;8.83;;;5.63;;
7289;SDS011;63176;52.678;13.250;2022-10-01T03:46:10;9.40;;;5.57;;
7289;SDS011;63176;52.678;13.250;2022-10-01T03:48:36;9.10;;;6.00;;
7289;SDS011;63176;52.678;13.250;2022-10-01T03:51:01;5.07;;;4.33;;
7289;SDS011;63176;52.678;13.250;2022-10-01T03:53:27;7.20;;;5.30;;
7289;SDS011;63176;52.678;13.250;2022-10-01T03:55:55;7.57;;;5.72;;
7289;SDS011;63176;52.678;13.250;2022-10-01T03:58:22;6.70;;;4.70;;
7289;SDS011;63176;52.678;13.250;2022-10-01T04:00:48;5.67;;;5.13;;
7289;SDS011;63176;52.678;13.250;2022-10-01T04:03:14;8.82;;;5.22;;
7289;SDS011;63176;52.678;13.250;2022-10-01T04:05:41;6.47;;;5.03;;
7289;SDS011;63176;52.678;13.250;2022-10-01T04:08:08;6.10;;;5.22;;
7289;SDS011;63176;52.678;13.250;2022-10-01T04:10:33;6.87;;;5.53;;
7289;SDS011;63176;52.678;13.250;2022-10-01T04:12:59;7.00;;;5.20;;
7289;SDS011;63176;52.678;13.250;2022-10-01T04:15:25;6.50;;;4.85;;
7289;SDS011;63176;52.678;13.250;2022-10-01T04:17:51;6.80;;;5.65;;
7289;SDS011;63176;52.678;13.250;2022-10-01T04:20:18;7.22;;;5.47;;
7289;SDS011;63176;52.678;13.250;2022-10-01T04:22:43;5.13;;;4.40;;
7289;SDS011;63176;52.678;13.250;2022-10-01T04:25:10;7.72;;;5.90;;
7289;SDS011;63176;52.678;13.250;2022-10-01T04:27:36;8.77;;;6.10;;
7289;SDS011;63176;52.678;13.250;2022-10-01T04:30:06;8.93;;;5.57;;
7289;SDS011;63176;52.678;13.250;2022-10-01T04:32:33;7.22;;;5.57;;
7289;SDS011;63176;52.678;13.250;2022-10-01T04:34:59;6.15;;;5.53;;
7289;SDS011;63176;52.678;13.250;2022-10-01T04:37:27;8.85;;;5.70;;
7289;SDS011;63176;52.678;13.250;2022-10-01T04:39:53;9.10;;;6.03;;
7289;SDS011;63176;52.678;13.250;2022-10-01T04:42:19;7.80;;;5.53;;
7289;SDS011;63176;52.678;13.250;2022-10-01T04:44:45;5.53;;;4.80;;
7289;SDS011;63176;52.678;13.250;2022-10-01T04:47:11;7.60;;;6.00;;
7289;SDS011;63176;52.678;13.250;2022-10-01T04:49:37;5.47;;;4.30;;
7289;SDS011;63176;52.678;13.250;2022-10-01T04:52:02;7.63;;;5.67;;
7289;SDS011;63176;52.678;13.250;2022-10-01T04:54:29;6.88;;;5.93;;
7289;SDS011;63176;52.678;13.250;2022-10-01T04:56:55;6.90;;;5.57;;
7289;SDS011;63176;52.678;13.250;2022-10-01T04:59:24;5.95;;;4.95;;
7289;SDS011;63176;52.678;13.250;2022-10-01T05:01:50;6.03;;;5.40;;
7289;SDS011;63176;52.678;13.250;2022-10-01T05:04:15;6.25;;;5.07;;
7289;SDS011;63176;52.678;13.250;2022-10-01T05:06:41;7.70;;;5.30;;
7289;SDS011;63176;52.678;13.250;2022-10-01T05:09:07;7.50;;;4.43;;
7289;SDS011;63176;52.678;13.250;2022-10-01T05:11:32;9.33;;;4.87;;
7289;SDS011;63176;52.678;13.250;2022-10-01T05:14:03;9.23;;;4.55;;
7289;SDS011;63176;52.678;13.250;2022-10-01T05:16:28;9.57;;;5.90;;
7289;SDS011;63176;52.678;13.250;2022-10-01T05:18:54;6.40;;;4.87;;
7289;SDS011;63176;52.678;13.250;2022-10-01T05:21:20;9.10;;;5.65;;
7289;SDS011;63176;52.678;13.250;2022-10-01T05:23:46;6.93;;;5.07;;
7289;SDS011;63176;52.678;13.250;2022-10-01T05:26:11;8.17;;;5.23;;
7289;SDS011;63176;52.678;13.250;2022-10-01T05:28:37;6.57;;;4.40;;
7289;SDS011;63176;52.678;13.250;2022-10-01T05:31:08;6.18;;;4.65;;
7289;SDS011;63176;52.678;13.250;2022-10-01T05:33:35;6.43;;;4.82;;
7289;SDS011;63176;52.678;13.250;2022-10-01T05:36:00;7.53;;;4.57;;
7289;SDS011;63176;52.678;13.250;2022-10-01T05:38:29;5.95;;;4.47;;
7289;SDS011;63176;52.678;13.250;2022-10-01T05:40:54;8.00;;;5.77;;
7289;SDS011;63176;52.678;13.250;2022-10-01T05:43:21;8.20;;;6.03;;
7289;SDS011;63176;52.678;13.250;2022-10-01T05:45:49;4.65;;;4.05;;
7289;SDS011;63176;52.678;13.250;2022-10-01T05:48:15;4.43;;;4.00;;
7289;SDS011;63176;52.678;13.250;2022-10-01T05:50:40;6.27;;;4.73;;
7289;SDS011;63176;52.678;13.250;2022-10-01T05:53:08;6.43;;;4.80;;
7289;SDS011;63176;52.678;13.250;2022-10-01T05:55:35;5.15;;;4.15;;
7289;SDS011;63176;52.678;13.250;2022-10-01T06:00:32;8.23;;;4.35;;
7289;SDS011;63176;52.678;13.250;2022-10-01T06:02:59;7.80;;;4.45;;
7289;SDS011;63176;52.678;13.250;2022-10-01T06:05:27;9.93;;;4.57;;
7289;SDS011;63176;52.678;13.250;2022-10-01T06:07:54;4.40;;;3.67;;
7289;SDS011;63176;52.678;13.250;2022-10-01T06:10:20;5.55;;;4.30;;
7289;SDS011;63176;52.678;13.250;2022-10-01T06:12:47;5.38;;;4.30;;
7289;SDS011;63176;52.678;13.250;2022-10-01T06:15:13;7.22;;;4.95;;
7289;SDS011;63176;52.678;13.250;2022-10-01T06:17:39;5.20;;;4.45;;
7289;SDS011;63176;52.678;13.250;2022-10-01T06:20:12;4.90;;;4.30;;
7289;SDS011;63176;52.678;13.250;2022-10-01T06:22:43;5.00;;;3.80;;
7289;SDS011;63176;52.678;13.250;2022-10-01T06:25:09;6.20;;;4.50;;
7289;SDS011;63176;52.678;13.250;2022-10-01T06:27:36;5.15;;;4.40;;
7289;SDS011;63176;52.678;13.250;2022-10-01T06:30:02;4.27;;;3.63;;
7289;SDS011;63176;52.678;13.250;2022-10-01T06:32:29;5.45;;;4.18;;
7289;SDS011;63176;52.678;13.250;2022-10-01T06:34:54;7.23;;;5.30;;
7289;SDS011;63176;52.678;13.250;2022-10-01T06:37:20;5.60;;;4.30;;
7289;SDS011;63176;52.678;13.250;2022-10-01T06:39:46;6.43;;;5.20;;
7289;SDS011;63176;52.678;13.250;2022-10-01T06:42:12;5.67;;;4.07;;
7289;SDS011;63176;52.678;13.250;2022-10-01T06:44:37;5.70;;;4.40;;
7289;SDS011;63176;52.678;13.250;2022-10-01T06:47:03;4.57;;;4.00;;
7289;SDS011;63176;52.678;13.250;2022-10-01T06:49:29;5.27;;;4.00;;
7289;SDS011;63176;52.678;13.250;2022-10-01T06:51:54;5.67;;;4.03;;
7289;SDS011;63176;52.678;13.250;2022-10-01T06:54:38;5.45;;;4.47;;
7289;SDS011;63176;52.678;13.250;2022-10-01T06:57:04;7.70;;;4.50;;
7289;SDS011;63176;52.678;13.250;2022-10-01T06:59:30;6.47;;;4.07;;
7289;SDS011;63176;52.678;13.250;2022-10-01T07:01:55;5.43;;;4.50;;
7289;SDS011;63176;52.678;13.250;2022-10-01T07:04:21;4.07;;;3.60;;
7289;SDS011;63176;52.678;13.250;2022-10-01T07:06:47;5.03;;;3.90;;
7289;SDS011;63176;52.678;13.250;2022-10-01T07:09:12;5.07;;;4.57;;
7289;SDS011;63176;52.678;13.250;2022-10-01T07:11:38;4.67;;;3.63;;
7289;SDS011;63176;52.678;13.250;2022-10-01T07:14:08;8.15;;;3.70;;
7289;SDS011;63176;52.678;13.250;2022-10-01T07:16:36;4.97;;;4.00;;
7289;SDS011;63176;52.678;13.250;2022-10-01T07:19:02;5.07;;;3.95;;
7289;SDS011;63176;52.678;13.250;2022-10-01T07:21:27;4.43;;;3.97;;
7289;SDS011;63176;52.678;13.250;2022-10-01T07:23:53;4.83;;;3.53;;
7289;SDS011;63176;52.678;13.250;2022-10-01T07:26:19;5.37;;;4.00;;
7289;SDS011;63176;52.678;13.250;2022-10-01T07:28:44;4.60;;;3.40;;
7289;SDS011;63176;52.678;13.250;2022-10-01T07:31:10;6.17;;;4.20;;
7289;SDS011;63176;52.678;13.250;2022-10-01T07:33:37;6.30;;;3.80;;
7289;SDS011;63176;52.678;13.250;2022-10-01T07:36:03;6.05;;;3.92;;
7289;SDS011;63176;52.678;13.250;2022-10-01T07:38:31;8.27;;;4.50;;
7289;SDS011;63176;52.678;13.250;2022-10-01T07:41:00;6.90;;;4.50;;
7289;SDS011;63176;52.678;13.250;2022-10-01T07:43:26;6.32;;;4.78;;
7289;SDS011;63176;52.678;13.250;2022-10-01T07:45:53;5.20;;;3.95;;
7289;SDS011;63176;52.678;13.250;2022-10-01T07:48:22;4.78;;;4.13;;
7289;SDS011;63176;52.678;13.250;2022-10-01T07:50:48;4.47;;;3.67;;
7289;SDS011;63176;52.678;13.250;2022-10-01T07:53:14;5.83;;;3.60;;
7289;SDS011;63176;52.678;13.250;2022-10-01T07:55:40;6.30;;;4.20;;
7289;SDS011;63176;52.678;13.250;2022-10-01T07:58:06;10.07;;;4.03;;
7289;SDS011;63176;52.678;13.250;2022-10-01T08:00:33;5.85;;;4.35;;
7289;SDS011;63176;52.678;13.250;2022-10-01T08:02:59;9.67;;;4.53;;
7289;SDS011;63176;52.678;13.250;2022-10-01T08:05:26;5.67;;;4.10;;
7289;SDS011;63176;52.678;13.250;2022-10-01T08:08:04;4.50;;;3.63;;
7289;SDS011;63176;52.678;13.250;2022-10-01T08:10:31;4.43;;;4.03;;
7289;SDS011;63176;52.678;13.250;2022-10-01T08:13:03;6.93;;;3.90;;
7289;SDS011;63176;52.678;13.250;2022-10-01T08:15:32;6.43;;;3.53;;
7289;SDS011;63176;52.678;13.250;2022-10-01T08:18:02;7.75;;;4.60;;
7289;SDS011;63176;52.678;13.250;2022-10-01T08:20:28;5.38;;;3.55;;
7289;SDS011;63176;52.678;13.250;2022-10-01T08:23:05;4.72;;;3.80;;
7289;SDS011;63176;52.678;13.250;2022-10-01T08:25:32;4.93;;;3.28;;
7289;SDS011;63176;52.678;13.250;2022-10-01T08:27:58;5.78;;;3.80;;
7289;SDS011;63176;52.678;13.250;2022-10-01T08:30:25;5.25;;;3.50;;
7289;SDS011;63176;52.678;13.250;2022-10-01T08:32:54;5.70;;;3.72;;
7289;SDS011;63176;52.678;13.250;2022-10-01T08:35:22;3.90;;;3.00;;
7289;SDS011;63176;52.678;13.250;2022-10-01T08:37:48;4.43;;;4.00;;
7289;SDS011;63176;52.678;13.250;2022-10-01T08:40:14;3.87;;;3.40;;
7289;SDS011;63176;52.678;13.250;2022-10-01T08:48:15;11.02;;;3.90;;
7289;SDS011;63176;52.678;13.250;2022-10-01T08:51:00;4.13;;;3.40;;
7289;SDS011;63176;52.678;13.250;2022-10-01T08:53:36;5.90;;;3.33;;
7289;SDS011;63176;52.678;13.250;2022-10-01T08:56:02;6.95;;;4.10;;
7289;SDS011;63176;52.678;13.250;2022-10-01T08:58:32;5.22;;;3.20;;
7289;SDS011;63176;52.678;13.250;2022-10-01T09:01:05;4.25;;;3.50;;
7289;SDS011;63176;52.678;13.250;2022-10-01T09:03:30;4.47;;;2.80;;
7289;SDS011;63176;52.678;13.250;2022-10-01T09:06:16;7.55;;;3.42;;
7289;SDS011;63176;52.678;13.250;2022-10-01T09:09:01;3.70;;;3.30;;
7289;SDS011;63176;52.678;13.250;2022-10-01T09:11:46;4.20;;;3.25;;
7289;SDS011;63176;52.678;13.250;2022-10-01T09:22:34;3.47;;;2.92;;
7289;SDS011;63176;52.678;13.250;2022-10-01T09:25:20;4.95;;;3.05;;
7289;SDS011;63176;52.678;13.250;2022-10-01T09:27:51;4.43;;;2.80;;
7289;SDS011;63176;52.678;13.250;2022-10-01T09:33:36;4.50;;;2.80;;
7289;SDS011;63176;52.678;13.250;2022-10-01T09:36:21;3.13;;;2.83;;
7289;SDS011;63176;52.678;13.250;2022-10-01T09:41:53;3.40;;;2.90;;
7289;SDS011;63176;52.678;13.250;2022-10-01T09:44:21;4.43;;;2.78;;
7289;SDS011;63176;52.678;13.250;2022-10-01T09:46:51;3.53;;;2.53;;
7289;SDS011;63176;52.678;13.250;2022-10-01T09:52:09;2.60;;;2.40;;
7289;SDS011;63176;52.678;13.250;2022-10-01T09:54:44;3.38;;;2.70;;
7289;SDS011;63176;52.678;13.250;2022-10-01T09:57:24;3.22;;;2.80;;
7289;SDS011;63176;52.678;13.250;2022-10-01T10:00:07;3.60;;;2.55;;
7289;SDS011;63176;52.678;13.250;2022-10-01T10:02:39;2.75;;;2.38;;
7289;SDS011;63176;52.678;13.250;2022-10-01T10:05:16;4.00;;;2.92;;
7289;SDS011;63176;52.678;13.250;2022-10-01T10:07:52;2.95;;;2.60;;
7289;SDS011;63176;52.678;13.250;2022-10-01T10:10:20;8.35;;;3.90;;
7289;SDS011;63176;52.678;13.250;2022-10-01T10:12:53;3.03;;;2.72;;
7289;SDS011;63176;52.678;13.250;2022-10-01T10:15:38;4.43;;;2.50;;
7289;SDS011;63176;52.678;13.250;2022-10-01T10:18:13;3.95;;;2.55;;
7289;SDS011;63176;52.678;13.250;2022-10-01T10:20:42;3.10;;;2.35;;
7289;SDS011;63176;52.678;13.250;2022-10-01T10:25:39;3.72;;;2.65;;
7289;SDS011;63176;52.678;13.250;2022-10-01T10:28:15;2.70;;;2.23;;
7289;SDS011;63176;52.678;13.250;2022-10-01T10:30:44;3.25;;;2.50;;
7289;SDS011;63176;52.678;13.250;2022-10-01T10:33:11;4.57;;;2.80;;
7289;SDS011;63176;52.678;13.250;2022-10-01T10:35:38;3.05;;;2.75;;
7289;SDS011;63176;52.678;13.250;2022-10-01T10:38:04;3.23;;;2.93;;
7289;SDS011;63176;52.678;13.250;2022-10-01T10:40:39;3.53;;;2.55;;
7289;SDS011;63176;52.678;13.250;2022-10-01T10:43:19;5.18;;;2.92;;
7289;SDS011;63176;52.678;13.250;2022-10-01T10:45:52;2.50;;;2.30;;
7289;SDS011;63176;52.678;13.250;2022-10-01T10:48:24;4.28;;;3.05;;
7289;SDS011;63176;52.678;13.250;2022-10-01T10:51:00;3.13;;;2.85;;
7289;SDS011;63176;52.678;13.250;2022-10-01T10:53:29;3.22;;;2.33;;
7289;SDS011;63176;52.678;13.250;2022-10-01T10:56:05;2.83;;;2.50;;
7289;SDS011;63176;52.678;13.250;2022-10-01T10:58:41;3.03;;;2.40;;
7289;SDS011;63176;52.678;13.250;2022-10-01T11:01:11;3.17;;;2.70;;
7289;SDS011;63176;52.678;13.250;2022-10-01T11:04:02;3.92;;;3.03;;
7289;SDS011;63176;52.678;13.250;2022-10-01T11:06:32;4.10;;;3.15;;
7289;SDS011;63176;52.678;13.250;2022-10-01T11:09:01;4.50;;;3.07;;
7289;SDS011;63176;52.678;13.250;2022-10-01T11:11:34;5.03;;;3.00;;
7289;SDS011;63176;52.678;13.250;2022-10-01T11:14:29;4.75;;;3.25;;
7289;SDS011;63176;52.678;13.250;2022-10-01T11:17:28;4.20;;;3.50;;
7289;SDS011;63176;52.678;13.250;2022-10-01T11:20:20;3.92;;;3.13;;
7289;SDS011;63176;52.678;13.250;2022-10-01T11:23:04;4.07;;;3.67;;
7289;SDS011;63176;52.678;13.250;2022-10-01T11:25:38;3.33;;;3.03;;
7289;SDS011;63176;52.678;13.250;2022-10-01T11:28:20;4.55;;;3.30;;
7289;SDS011;63176;52.678;13.250;2022-10-01T11:30:52;3.35;;;3.05;;
7289;SDS011;63176;52.678;13.250;2022-10-01T11:38:52;3.55;;;3.25;;
7289;SDS011;63176;52.678;13.250;2022-10-01T11:41:24;3.75;;;2.95;;
7289;SDS011;63176;52.678;13.250;2022-10-01T11:43:53;4.20;;;3.50;;
7289;SDS011;63176;52.678;13.250;2022-10-01T11:46:25;3.95;;;3.53;;
7289;SDS011;63176;52.678;13.250;2022-10-01T11:49:08;10.05;;;5.65;;
7289;SDS011;63176;52.678;13.250;2022-10-01T11:52:02;3.70;;;3.30;;
7289;SDS011;63176;52.678;13.250;2022-10-01T11:54:36;5.32;;;3.42;;
7289;SDS011;63176;52.678;13.250;2022-10-01T11:57:10;3.38;;;2.75;;
7289;SDS011;63176;52.678;13.250;2022-10-01T12:00:05;3.55;;;2.88;;
7289;SDS011;63176;52.678;13.250;2022-10-01T12:02:43;4.50;;;3.50;;
7289;SDS011;63176;52.678;13.250;2022-10-01T12:05:18;3.80;;;3.22;;
7289;SDS011;63176;52.678;13.250;2022-10-01T12:07:48;3.28;;;2.80;;
7289;SDS011;63176;52.678;13.250;2022-10-01T12:12:56;3.33;;;3.03;;
7289;SDS011;63176;52.678;13.250;2022-10-01T12:15:23;3.50;;;2.75;;
7289;SDS011;63176;52.678;13.250;2022-10-01T12:18:12;3.05;;;2.70;;
7289;SDS011;63176;52.678;13.250;2022-10-01T12:23:14;2.95;;;2.60;;
7289;SDS011;63176;52.678;13.250;2022-10-01T12:34:05;2.65;;;2.45;;
7289;SDS011;63176;52.678;13.250;2022-10-01T12:40:02;3.20;;;2.25;;
7289;SDS011;63176;52.678;13.250;2022-10-01T12:42:48;2.45;;;2.25;;
7289;SDS011;63176;52.678;13.250;2022-10-01T12:54:25;2.90;;;2.45;;
7289;SDS011;63176;52.678;13.250;2022-10-01T12:59:18;3.55;;;2.70;;
7289;SDS011;63176;52.678;13.250;2022-10-01T13:04:52;2.35;;;2.15;;
7289;SDS011;63176;52.678;13.250;2022-10-01T13:13:16;2.28;;;2.08;;
7289;SDS011;63176;52.678;13.250;2022-10-01T13:16:32;2.70;;;1.95;;
7289;SDS011;63176;52.678;13.250;2022-10-01T13:26:42;4.53;;;3.00;;
7289;SDS011;63176;52.678;13.250;2022-10-01T13:32:28;3.13;;;2.65;;
7289;SDS011;63176;52.678;13.250;2022-10-01T13:34:54;2.97;;;2.60;;
7289;SDS011;63176;52.678;13.250;2022-10-01T13:39:58;2.70;;;2.40;;
7289;SDS011;63176;52.678;13.250;2022-10-01T13:44:56;2.35;;;2.03;;
7289;SDS011;63176;52.678;13.250;2022-10-01T13:47:28;3.78;;;2.85;;
7289;SDS011;63176;52.678;13.250;2022-10-01T13:50:04;2.85;;;2.53;;
7289;SDS011;63176;52.678;13.250;2022-10-01T13:52:41;2.17;;;1.95;;
7289;SDS011;63176;52.678;13.250;2022-10-01T13:55:18;2.53;;;2.00;;
7289;SDS011;63176;52.678;13.250;2022-10-01T13:58:06;1.90;;;1.80;;
7289;SDS011;63176;52.678;13.250;2022-10-01T14:09:12;5.75;;;2.60;;
7289;SDS011;63176;52.678;13.250;2022-10-01T14:11:48;2.20;;;2.00;;
7289;SDS011;63176;52.678;13.250;2022-10-01T14:14:48;1.85;;;1.70;;
7289;SDS011;63176;52.678;13.250;2022-10-01T14:17:45;2.35;;;1.83;;
7289;SDS011;63176;52.678;13.250;2022-10-01T14:20:24;1.77;;;1.67;;
7289;SDS011;63176;52.678;13.250;2022-10-01T14:23:57;2.78;;;2.30;;
7289;SDS011;63176;52.678;13.250;2022-10-01T14:25:57;2.85;;;2.40;;
7289;SDS011;63176;52.678;13.250;2022-10-01T14:28:37;2.58;;;1.60;;
7289;SDS011;63176;52.678;13.250;2022-10-01T14:31:17;2.15;;;1.95;;
7289;SDS011;63176;52.678;13.250;2022-10-01T14:41:44;5.20;;;4.20;;
7289;SDS011;63176;52.678;13.250;2022-10-01T14:44:35;4.10;;;3.08;;
7289;SDS011;63176;52.678;13.250;2022-10-01T14:47:19;3.53;;;2.55;;
7289;SDS011;63176;52.678;13.250;2022-10-01T14:52:33;3.05;;;2.53;;
7289;SDS011;63176;52.678;13.250;2022-10-01T14:55:01;3.28;;;2.67;;
7289;SDS011;63176;52.678;13.250;2022-10-01T14:57:34;2.92;;;2.10;;
7289;SDS011;63176;52.678;13.250;2022-10-01T15:02:45;2.55;;;1.90;;
7289;SDS011;63176;52.678;13.250;2022-10-01T15:05:26;2.67;;;1.55;;
7289;SDS011;63176;52.678;13.250;2022-10-01T15:07:53;3.78;;;3.30;;
7289;SDS011;63176;52.678;13.250;2022-10-01T15:10:20;3.37;;;3.07;;
7289;SDS011;63176;52.678;13.250;2022-10-01T15:12:48;3.40;;;3.03;;
7289;SDS011;63176;52.678;13.250;2022-10-01T15:15:37;4.20;;;3.40;;
7289;SDS011;63176;52.678;13.250;2022-10-01T15:18:05;3.47;;;2.60;;
7289;SDS011;63176;52.678;13.250;2022-10-01T15:20:31;2.65;;;2.30;;
7289;SDS011;63176;52.678;13.250;2022-10-01T15:22:57;2.25;;;2.00;;
7289;SDS011;63176;52.678;13.250;2022-10-01T15:25:24;4.43;;;2.30;;
7289;SDS011;63176;52.678;13.250;2022-10-01T15:27:52;3.10;;;1.73;;
7289;SDS011;63176;52.678;13.250;2022-10-01T15:30:18;2.53;;;2.33;;
7289;SDS011;63176;52.678;13.250;2022-10-01T15:32:47;1.73;;;1.63;;
7289;SDS011;63176;52.678;13.250;2022-10-01T15:35:16;3.55;;;2.30;;
7289;SDS011;63176;52.678;13.250;2022-10-01T15:37:44;3.15;;;2.00;;
7289;SDS011;63176;52.678;13.250;2022-10-01T15:45:33;2.05;;;1.90;;
7289;SDS011;63176;52.678;13.250;2022-10-01T15:47:59;2.20;;;1.80;;
7289;SDS011;63176;52.678;13.250;2022-10-01T15:50:31;2.60;;;1.80;;
7289;SDS011;63176;52.678;13.250;2022-10-01T15:53:09;4.60;;;2.63;;
7289;SDS011;63176;52.678;13.250;2022-10-01T15:55:42;2.40;;;2.20;;
7289;SDS011;63176;52.678;13.250;2022-10-01T16:06:05;4.35;;;2.63;;
7289;SDS011;63176;52.678;13.250;2022-10-01T16:11:24;2.05;;;1.85;;
7289;SDS011;63176;52.678;13.250;2022-10-01T16:14:19;4.47;;;2.60;;
7289;SDS011;63176;52.678;13.250;2022-10-01T16:16:47;3.20;;;2.10;;
7289;SDS011;63176;52.678;13.250;2022-10-01T16:19:19;3.72;;;2.60;;
7289;SDS011;63176;52.678;13.250;2022-10-01T16:25:01;2.83;;;2.53;;
7289;SDS011;63176;52.678;13.250;2022-10-01T16:27:43;2.53;;;2.25;;
7289;SDS011;63176;52.678;13.250;2022-10-01T16:30:20;2.55;;;1.95;;
7289;SDS011;63176;52.678;13.250;2022-10-01T16:32:52;2.40;;;1.90;;
7289;SDS011;63176;52.678;13.250;2022-10-01T16:38:29;1.88;;;1.65;;
7289;SDS011;63176;52.678;13.250;2022-10-01T16:40:57;1.40;;;1.30;;
7289;SDS011;63176;52.678;13.250;2022-10-01T16:46:45;1.92;;;1.83;;
7289;SDS011;63176;52.678;13.250;2022-10-01T16:49:11;1.90;;;1.67;;
7289;SDS011;63176;52.678;13.250;2022-10-01T16:51:38;1.35;;;1.25;;
7289;SDS011;63176;52.678;13.250;2022-10-01T16:56:52;3.33;;;1.73;;
7289;SDS011;63176;52.678;13.250;2022-10-01T16:59:19;3.83;;;2.00;;
7289;SDS011;63176;52.678;13.250;2022-10-01T17:01:46;3.28;;;1.90;;
7289;SDS011;63176;52.678;13.250;2022-10-01T17:04:18;1.70;;;1.60;;
7289;SDS011;63176;52.678;13.250;2022-10-01T17:09:44;5.03;;;2.40;;
7289;SDS011;63176;52.678;13.250;2022-10-01T17:12:09;2.20;;;2.00;;
7289;SDS011;63176;52.678;13.250;2022-10-01T17:14:35;3.23;;;2.23;;
7289;SDS011;63176;52.678;13.250;2022-10-01T17:17:01;2.30;;;2.10;;
7289;SDS011;63176;52.678;13.250;2022-10-01T17:22:49;3.50;;;1.75;;
7289;SDS011;63176;52.678;13.250;2022-10-01T17:28:38;3.97;;;2.05;;
7289;SDS011;63176;52.678;13.250;2022-10-01T17:31:06;2.47;;;2.07;;
7289;SDS011;63176;52.678;13.250;2022-10-01T17:43:34;2.50;;;1.92;;
7289;SDS011;63176;52.678;13.250;2022-10-01T17:46:03;2.28;;;2.05;;
7289;SDS011;63176;52.678;13.250;2022-10-01T17:55:09;2.92;;;2.20;;
7289;SDS011;63176;52.678;13.250;2022-10-01T17:57:38;2.20;;;2.00;;
7289;SDS011;63176;52.678;13.250;2022-10-01T18:03:25;3.20;;;2.42;;
7289;SDS011;63176;52.678;13.250;2022-10-01T18:05:58;4.90;;;2.63;;
7289;SDS011;63176;52.678;13.250;2022-10-01T18:11:26;3.55;;;2.50;;
7289;SDS011;63176;52.678;13.250;2022-10-01T18:14:11;2.53;;;2.33;;
7289;SDS011;63176;52.678;13.250;2022-10-01T18:16:36;6.65;;;3.60;;
7289;SDS011;63176;52.678;13.250;2022-10-01T18:25:47;6.13;;;2.97;;